Time;durP1;ratioP1;P1;durP2;ratioP2;P2;SDS_P1;SDS_P2;PMS_P1;PMS_P2;Temp;Humidity;BMP_temperature;BMP_pressure;BME280_temperature;BME280_humidity;BME280_pressure;Samples;Min_cycle;Max_cycle;Signal;HPM_P1;HPM_P2
2022/12/29 00:00:56;;;;;;;22.60;15.90;;;;;;;4.66;100.00;62480.56;5075512;28;20256;-78
2022/12/29 00:03:34;;;;;;;26.95;16.05;;;;;;;4.70;100.00;62479.63;5087809;28;20207;-79
2022/12/29 00:06:10;;;;;;;20.92;13.88;;;;;;;4.69;100.00;62481.13;5077980;28;20292;-79
2022/12/29 00:08:49;;;;;;;22.00;14.65;;;;;;;4.73;100.00;62490.81;5064556;28;20217;-77
2022/12/29 00:11:28;;;;;;;22.80;15.38;;;;;;;4.74;100.00;62484.25;5085183;28;20216;-79
2022/12/29 00:17:32;;;;;;;18.17;12.82;;;;;;;4.69;100.00;62484.16;5077071;28;20227;-78
2022/12/29 00:45:58;;;;;;;31.48;17.05;;;;;;;4.41;100.00;62449.78;5078598;28;20250;-80
2022/12/29 00:51:21;;;;;;;24.15;17.23;;;;;;;4.39;100.00;62452.75;5083250;28;20265;-77
2022/12/29 00:53:56;;;;;;;32.67;17.52;;;;;;;4.44;100.00;62452.88;5074368;28;20201;-78
2022/12/29 00:56:35;;;;;;;27.20;17.42;;;;;;;4.52;100.00;62461.13;5083670;28;20223;-76
2022/12/29 00:59:09;;;;;;;33.58;16.52;;;;;;;4.55;100.00;62469.25;5083464;28;20297;-77
2022/12/29 01:01:43;;;;;;;25.33;15.30;;;;;;;4.56;100.00;62468.25;5082209;28;20224;-77
2022/12/29 01:04:18;;;;;;;23.45;16.10;;;;;;;4.54;100.00;62466.19;5068775;28;20203;-77
2022/12/29 01:06:50;;;;;;;28.50;17.10;;;;;;;4.54;100.00;62463.16;5083721;28;20220;-78
2022/12/29 01:12:17;;;;;;;29.38;16.45;;;;;;;4.47;100.00;62463.50;5082979;28;20262;-80
2022/12/29 01:15:29;;;;;;;28.27;17.33;;;;;;;4.43;100.00;62454.88;5079912;28;20211;-77
2022/12/29 01:18:14;;;;;;;35.10;21.25;;;;;;;4.37;100.00;62450.72;5076791;28;20213;-77
2022/12/29 01:20:50;;;;;;;35.58;20.27;;;;;;;4.32;100.00;62446.09;5082019;28;20274;-77
2022/12/29 01:23:36;;;;;;;35.60;22.23;;;;;;;4.31;100.00;62445.06;5080485;28;20193;-78
2022/12/29 01:26:32;;;;;;;42.38;23.38;;;;;;;4.31;100.00;62436.97;5077014;28;20233;-76
2022/12/29 01:29:10;;;;;;;36.40;23.42;;;;;;;4.28;100.00;62438.94;5070307;28;20200;-77
2022/12/29 01:31:49;;;;;;;40.47;23.50;;;;;;;4.24;100.00;62434.81;5086033;28;20537;-77
2022/12/29 01:34:31;;;;;;;36.40;22.55;;;;;;;4.26;100.00;62434.84;5089512;28;20348;-77
2022/12/29 01:37:17;;;;;;;39.47;23.35;;;;;;;4.26;100.00;62439.41;5085986;28;20235;-77
2022/12/29 01:39:49;;;;;;;37.70;23.77;;;;;;;4.21;100.00;62431.72;5076565;28;20230;-77
2022/12/29 01:42:24;;;;;;;42.38;23.42;;;;;;;4.21;100.00;62432.22;5081856;28;20217;-79
2022/12/29 01:45:10;;;;;;;34.05;21.35;;;;;;;4.30;100.00;62446.03;5086379;28;20208;-78
2022/12/29 01:48:08;;;;;;;40.42;22.45;;;;;;;4.33;100.00;62446.59;5083575;28;20239;-77
2022/12/29 01:50:52;;;;;;;40.30;24.75;;;;;;;4.36;100.00;62447.16;5083727;28;20224;-78
2022/12/29 01:53:32;;;;;;;40.33;22.42;;;;;;;4.41;100.00;62452.31;5086437;28;20209;-77
2022/12/29 01:56:18;;;;;;;38.33;24.40;;;;;;;4.40;100.00;62454.31;5086048;28;20474;-77
2022/12/29 01:59:20;;;;;;;47.65;26.08;;;;;;;4.42;100.00;62453.84;5076715;28;20200;-77
2022/12/29 02:02:08;;;;;;;43.20;26.08;;;;;;;4.41;100.00;62455.34;5009826;28;20225;-78
2022/12/29 02:04:48;;;;;;;36.83;24.15;;;;;;;4.41;100.00;62454.81;5071756;28;20257;-78
2022/12/29 02:07:42;;;;;;;43.38;24.63;;;;;;;4.41;100.00;62455.34;5083487;28;20520;-79
2022/12/29 02:10:16;;;;;;;39.92;24.30;;;;;;;4.52;100.00;62466.66;5078249;28;20460;-78
2022/12/29 02:13:04;;;;;;;26.73;17.50;;;;;;;4.37;100.00;62448.69;5065656;28;20201;-78
2022/12/29 02:19:02;;;;;;;38.97;22.23;;;;;;;4.26;100.00;62439.41;5084376;28;20211;-78
2022/12/29 02:22:31;;;;;;;33.35;20.67;;;;;;;4.38;100.00;62449.22;5088522;28;20216;-78
2022/12/29 02:25:21;;;;;;;28.58;18.20;;;;;;;4.31;100.00;62440.03;5065879;28;20208;-76
2022/12/29 02:28:32;;;;;;;31.73;19.17;;;;;;;4.41;100.00;62454.81;5085573;28;20205;-76
2022/12/29 02:31:20;;;;;;;26.30;16.50;;;;;;;4.44;100.00;62460.44;5063845;28;20228;-76
2022/12/29 02:34:07;;;;;;;19.75;13.25;;;;;;;4.58;100.00;62472.84;5068974;28;20205;-78
2022/12/29 02:36:50;;;;;;;19.70;14.50;;;;;;;4.52;100.00;62469.19;5084270;28;20227;-77
2022/12/29 02:39:33;;;;;;;21.17;14.68;;;;;;;4.61;100.00;62473.41;5088776;28;20203;-76
2022/12/29 02:42:11;;;;;;;28.70;14.05;;;;;;;4.70;100.00;62485.19;5065383;28;20225;-77
2022/12/29 02:44:51;;;;;;;22.17;14.98;;;;;;;4.67;100.00;62474.53;5072464;28;20200;-77
2022/12/29 02:47:34;;;;;;;21.25;13.80;;;;;;;4.62;100.00;62473.94;5088056;28;20383;-77
2022/12/29 02:50:17;;;;;;;20.13;13.10;;;;;;;4.62;100.00;62474.44;5078150;28;20260;-77
2022/12/29 02:52:57;;;;;;;24.10;15.93;;;;;;;4.69;100.00;62481.63;5078197;28;20204;-77
2022/12/29 02:55:31;;;;;;;27.50;17.40;;;;;;;4.72;100.00;62489.25;5083667;28;20242;-76
2022/12/29 02:58:18;;;;;;;30.77;19.13;;;;;;;4.65;100.00;62484.56;5082862;28;20574;-77
2022/12/29 03:01:07;;;;;;;40.20;22.92;;;;;;;4.64;100.00;62479.00;5073297;28;20228;-77
2022/12/29 03:03:59;;;;;;;40.95;26.85;;;;;;;4.63;100.00;62478.00;5083564;28;20264;-77
2022/12/29 03:06:40;;;;;;;37.72;25.38;;;;;;;4.76;100.00;62490.34;5082229;28;20216;-76
2022/12/29 03:09:17;;;;;;;37.75;23.50;;;;;;;4.73;100.00;62485.75;5074350;28;20200;-76
2022/12/29 03:12:09;;;;;;;37.47;22.95;;;;;;;4.73;100.00;62488.28;5080949;28;20262;-76
2022/12/29 03:17:58;;;;;;;40.00;26.13;;;;;;;4.53;100.00;62462.66;5065354;28;20263;-76
2022/12/29 03:20:42;;;;;;;36.15;18.50;;;;;;;4.46;100.00;62462.50;5083064;28;20212;-76
2022/12/29 03:23:25;;;;;;;28.50;18.35;;;;;;;4.16;100.00;62426.59;5086452;28;20207;-77
2022/12/29 03:25:59;;;;;;;23.83;15.80;;;;;;;3.91;100.00;62403.91;5089698;28;20282;-76
2022/12/29 03:28:30;;;;;;;29.60;18.35;;;;;;;4.12;100.00;62422.47;5086082;28;20211;-76
2022/12/29 03:31:00;;;;;;;28.13;17.83;;;;;;;3.91;100.00;62403.38;5073366;28;20509;-77
2022/12/29 03:33:33;;;;;;;29.80;19.05;;;;;;;3.81;100.00;62393.09;5066404;28;20205;-76
2022/12/29 03:36:14;;;;;;;32.65;19.33;;;;;;;3.85;100.00;62399.75;5074001;28;20217;-77
2022/12/29 03:38:59;;;;;;;28.48;18.02;;;;;;;3.72;100.00;62379.31;5071900;28;20197;-76
2022/12/29 03:41:37;;;;;;;29.08;17.63;;;;;;;3.69;100.00;62380.75;5090732;28;20263;-76
2022/12/29 03:44:08;;;;;;;33.80;19.23;;;;;;;3.53;100.00;62362.81;5083401;28;20535;-75
2022/12/29 03:46:38;;;;;;;25.52;17.00;;;;;;;3.63;100.00;62369.53;5064081;28;20240;-77
2022/12/29 03:49:10;;;;;;;27.75;16.70;;;;;;;3.50;100.00;62359.72;5073193;28;20227;-76
2022/12/29 03:51:38;;;;;;;26.75;16.90;;;;;;;3.40;100.00;62349.44;5069341;28;20225;-75
2022/12/29 03:54:08;;;;;;;31.10;16.63;;;;;;;3.32;100.00;62338.72;5086919;28;20246;-76
2022/12/29 03:56:39;;;;;;;26.60;16.25;;;;;;;3.22;100.00;62333.47;5071330;28;20228;-77
2022/12/29 03:59:09;;;;;;;29.50;17.25;;;;;;;3.22;100.00;62335.97;5082369;28;20497;-76
2022/12/29 04:01:46;;;;;;;30.35;17.50;;;;;;;3.16;100.00;62327.28;5077786;28;20601;-76
2022/12/29 04:04:18;;;;;;;39.53;17.45;;;;;;;2.98;100.00;62305.75;5079301;28;20204;-77
2022/12/29 04:07:02;;;;;;;28.08;17.35;;;;;;;3.02;100.00;62309.88;5069784;28;20221;-77
2022/12/29 04:09:33;;;;;;;25.75;16.77;;;;;;;2.90;100.00;62295.53;5072412;28;20201;-76
2022/12/29 04:12:14;;;;;;;28.05;16.63;;;;;;;3.07;100.00;62315.50;5071655;28;20220;-77
2022/12/29 04:14:41;;;;;;;25.88;17.23;;;;;;;3.02;100.00;62312.88;5083533;28;20238;-76
2022/12/29 04:17:14;;;;;;;24.73;15.40;;;;;;;2.92;100.00;62297.59;5086620;28;20225;-76
2022/12/29 04:19:46;;;;;;;23.00;14.93;;;;;;;3.00;100.00;62307.81;5074949;28;20268;-77
2022/12/29 04:22:28;;;;;;;26.55;16.27;;;;;;;3.00;100.00;62307.81;5075447;28;20240;-78
2022/12/29 04:25:00;;;;;;;27.48;16.77;;;;;;;2.90;100.00;62303.06;5063719;28;20205;-78
2022/12/29 04:27:27;;;;;;;26.05;17.42;;;;;;;2.96;100.00;62306.22;5077781;28;20587;-78
2022/12/29 04:29:54;;;;;;;28.08;16.27;;;;;;;2.90;100.00;62300.06;5063192;28;20205;-77
2022/12/29 04:32:29;;;;;;;23.55;14.57;;;;;;;2.87;100.00;62294.97;5081192;28;20244;-77
2022/12/29 04:35:01;;;;;;;25.38;15.88;;;;;;;2.83;100.00;62295.88;5083374;28;20208;-78
2022/12/29 04:37:40;;;;;;;25.23;16.63;;;;;;;2.79;100.00;62286.75;5071383;28;20296;-77
2022/12/29 04:40:11;;;;;;;31.00;18.23;;;;;;;2.89;100.00;62299.53;5079044;28;20277;-77
2022/12/29 04:45:20;;;;;;;35.33;19.23;;;;;;;3.02;100.00;62309.88;5082760;28;20210;-77
2022/12/29 04:48:02;;;;;;;38.25;21.88;;;;;;;3.13;100.00;62324.19;5082772;28;20259;-78
2022/12/29 04:50:33;;;;;;;39.08;22.55;;;;;;;3.21;100.00;62329.91;5088369;28;20259;-77
2022/12/29 04:53:12;;;;;;;39.72;23.73;;;;;;;3.29;100.00;62340.66;5068930;28;20268;-77
2022/12/29 04:55:53;;;;;;;36.30;23.33;;;;;;;3.44;100.00;62353.03;5077281;28;20279;-77
2022/12/29 04:58:40;;;;;;;39.90;23.65;;;;;;;3.48;100.00;62357.69;5074056;28;20239;-77
2022/12/29 05:01:12;;;;;;;35.05;20.27;;;;;;;3.64;100.00;62375.63;5075922;28;20237;-76
2022/12/29 05:03:44;;;;;;;36.25;21.95;;;;;;;3.61;100.00;62372.53;5085823;28;20215;-77
2022/12/29 05:06:14;;;;;;;36.35;21.63;;;;;;;3.59;100.00;62373.00;5087752;28;20245;-77
2022/12/29 05:08:47;;;;;;;37.60;21.50;;;;;;;3.64;100.00;62373.63;5089602;28;20200;-78
2022/12/29 05:11:21;;;;;;;31.48;20.13;;;;;;;3.75;100.00;62386.91;5074359;28;20389;-77
2022/12/29 05:13:50;;;;;;;39.42;20.90;;;;;;;3.66;100.00;62377.69;5087118;28;20526;-77
2022/12/29 05:16:25;;;;;;;33.42;19.60;;;;;;;3.90;100.00;62400.34;5079981;28;20295;-77
2022/12/29 05:19:03;;;;;;;25.52;16.55;;;;;;;3.93;100.00;62400.91;5091979;28;20397;-77
2022/12/29 05:21:36;;;;;;;24.00;16.77;;;;;;;3.97;100.00;62407.03;5084718;28;20236;-77
2022/12/29 05:24:15;;;;;;;25.10;15.48;;;;;;;3.92;100.00;62404.91;5085114;28;20201;-77
2022/12/29 05:26:52;;;;;;;25.17;14.73;;;;;;;3.93;100.00;62405.97;5074724;28;20270;-76
2022/12/29 05:29:27;;;;;;;25.77;15.05;;;;;;;3.95;100.00;62404.97;5081779;28;20212;-77
2022/12/29 05:32:10;;;;;;;19.10;12.52;;;;;;;3.95;100.00;62405.47;5075791;28;20411;-77
2022/12/29 05:35:01;;;;;;;15.75;12.13;;;;;;;4.06;100.00;62414.28;5066007;28;20251;-77
2022/12/29 05:37:43;;;;;;;20.02;12.63;;;;;;;4.05;100.00;62418.31;5081342;28;20378;-77
2022/12/29 05:40:23;;;;;;;50.75;24.10;;;;;;;4.12;100.00;62425.50;5077516;28;20429;-79
2022/12/29 05:42:55;;;;;;;59.75;29.60;;;;;;;4.20;100.00;62431.22;5067553;28;20206;-77
2022/12/29 05:45:27;;;;;;;57.88;25.83;;;;;;;4.11;100.00;62426.47;5080696;28;20270;-76
2022/12/29 05:48:25;;;;;;;66.30;29.13;;;;;;;4.17;100.00;62430.13;5073178;28;20281;-76
2022/12/29 05:53:54;;;;;;;72.60;29.58;;;;;;;4.14;100.00;62427.56;5037464;28;20218;-77
2022/12/29 05:56:23;;;;;;;49.45;26.77;;;;;;;4.17;100.00;62430.13;5071136;28;20277;-77
2022/12/29 05:58:58;;;;;;;40.72;21.48;;;;;;;4.23;100.00;62431.25;5074641;28;20201;-76
2022/12/29 06:01:28;;;;;;;36.35;20.33;;;;;;;3.99;100.00;62412.13;5082252;28;20236;-76
2022/12/29 06:04:01;;;;;;;31.58;19.85;;;;;;;4.07;100.00;62417.31;5078376;28;20196;-76
2022/12/29 06:06:46;;;;;;;37.63;19.42;;;;;;;4.11;100.00;62427.00;5081197;28;20448;-76
2022/12/29 06:09:34;;;;;;;30.20;17.90;;;;;;;4.10;100.00;62420.94;5075097;28;20274;-78
2022/12/29 06:12:13;;;;;;;32.97;18.63;;;;;;;4.12;100.00;62420.47;5090076;28;20211;-77
2022/12/29 06:15:01;;;;;;;32.33;20.30;;;;;;;4.22;100.00;62435.78;5083553;28;20336;-77
2022/12/29 06:17:33;;;;;;;42.35;23.13;;;;;;;4.16;100.00;62426.59;5074992;28;20331;-77
2022/12/29 06:20:00;;;;;;;39.78;22.20;;;;;;;4.36;100.00;62452.72;5066154;28;20466;-76
2022/12/29 06:22:27;;;;;;;40.95;24.42;;;;;;;4.48;100.00;62460.03;5078399;28;20232;-76
2022/12/29 06:24:56;;;;;;;39.30;22.92;;;;;;;4.55;100.00;62467.25;5077104;28;20489;-77
2022/12/29 06:27:25;;;;;;;32.97;20.55;;;;;;;4.62;100.00;62479.47;5079694;28;20216;-77
2022/12/29 06:29:52;;;;;;;34.63;19.55;;;;;;;4.59;100.00;62473.38;5080799;28;20197;-77
2022/12/29 06:32:19;;;;;;;33.30;19.05;;;;;;;4.64;100.00;62473.97;5085167;28;20212;-75
2022/12/29 06:34:46;;;;;;;23.77;16.50;;;;;;;4.63;100.00;62477.47;5079319;28;20269;-77
2022/12/29 06:37:14;;;;;;;26.40;16.98;;;;;;;4.64;100.00;62478.50;5076116;28;20548;-75
2022/12/29 06:39:42;;;;;;;27.30;17.60;;;;;;;4.56;100.00;62468.25;5085258;28;20193;-77
2022/12/29 06:42:10;;;;;;;22.70;15.30;;;;;;;4.52;100.00;62464.13;5084232;28;20299;-77
2022/12/29 06:44:38;;;;;;;25.38;16.50;;;;;;;4.63;100.00;62480.00;5083012;28;20200;-77
2022/12/29 06:47:08;;;;;;;24.83;16.50;;;;;;;4.67;100.00;62479.06;5072387;28;20521;-77
2022/12/29 06:49:35;;;;;;;26.75;17.80;;;;;;;4.54;100.00;62470.72;5085591;28;20223;-77
2022/12/29 06:52:04;;;;;;;27.00;14.57;;;;;;;4.37;100.00;62448.19;5084345;28;20220;-76
2022/12/29 06:54:33;;;;;;;28.23;18.67;;;;;;;4.48;100.00;62459.50;5077265;28;20254;-77
2022/12/29 06:57:06;;;;;;;30.65;19.05;;;;;;;4.40;100.00;62451.78;5076196;28;20225;-76
2022/12/29 06:59:42;;;;;;;31.45;19.25;;;;;;;4.32;100.00;62443.56;5086187;28;20200;-77
2022/12/29 07:02:16;;;;;;;39.53;23.30;;;;;;;4.47;100.00;62459.00;5080082;28;20237;-77
2022/12/29 07:04:53;;;;;;;32.45;21.83;;;;;;;4.54;100.00;62468.19;5084575;28;20268;-76
2022/12/29 07:07:38;;;;;;;45.92;28.02;;;;;;;4.46;100.00;62460.50;5087747;28;20219;-76
2022/12/29 07:10:08;;;;;;;44.10;26.42;;;;;;;4.46;100.00;62455.44;5083622;28;20215;-77
2022/12/29 07:12:45;;;;;;;48.28;27.98;;;;;;;4.46;100.00;62457.44;5081045;28;20224;-77
2022/12/29 07:15:25;;;;;;;40.40;25.35;;;;;;;4.65;100.00;62480.06;5068643;28;20263;-77
2022/12/29 07:17:58;;;;;;;48.70;28.35;;;;;;;4.46;100.00;62459.97;5088505;28;20532;-77
2022/12/29 07:20:34;;;;;;;50.22;29.00;;;;;;;4.66;100.00;62478.56;5077162;28;20353;-77
2022/12/29 07:23:09;;;;;;;51.17;29.38;;;;;;;4.84;100.00;62496.06;5075775;28;20207;-78
2022/12/29 07:25:41;;;;;;;47.63;29.00;;;;;;;4.95;100.00;62504.84;5078855;28;20226;-77
2022/12/29 07:31:24;;;;;;;65.40;36.67;;;;;;;5.06;100.00;62518.69;5072695;28;20220;-76
2022/12/29 07:33:53;;;;;;;61.55;31.75;;;;;;;5.20;100.00;62538.16;5085718;28;20201;-79
2022/12/29 07:36:29;;;;;;;58.80;32.83;;;;;;;5.27;100.00;62543.38;5089354;28;20220;-76
2022/12/29 07:38:56;;;;;;;49.90;30.50;;;;;;;5.39;100.00;62552.69;5083610;28;20196;-77
2022/12/29 07:41:25;;;;;;;45.75;27.75;;;;;;;5.42;100.00;62553.25;5082460;28;20570;-77
2022/12/29 07:44:03;;;;;;;44.60;27.67;;;;;;;5.48;100.00;62557.44;5083790;28;20360;-77
2022/12/29 07:46:37;;;;;;;45.00;28.02;;;;;;;5.33;100.00;62549.03;5080341;28;20232;-76
2022/12/29 07:49:07;;;;;;;47.03;27.60;;;;;;;5.27;100.00;62545.91;5076586;28;20214;-77
2022/12/29 07:51:42;;;;;;;42.88;26.55;;;;;;;5.35;100.00;62549.09;5080288;28;20263;-77
2022/12/29 07:54:18;;;;;;;37.80;26.00;;;;;;;5.21;100.00;62534.66;5076791;28;20234;-77
2022/12/29 07:56:47;;;;;;;45.88;27.30;;;;;;;4.95;100.00;62512.94;5078504;28;20224;-78
2022/12/29 07:59:34;;;;;;;46.15;26.48;;;;;;;5.12;100.00;62525.41;5081386;28;20200;-76
2022/12/29 08:02:21;;;;;;;;;;;;;;;;;;;;;
2022/12/29 08:05:03;;;;;;;47.42;27.75;;;;;;;4.95;100.00;62510.44;5083923;28;20221;-76
2022/12/29 08:07:32;;;;;;;43.45;27.38;;;;;;;5.09;100.00;62517.25;5082725;28;20224;-75
2022/12/29 08:10:11;;;;;;;50.13;27.85;;;;;;;5.24;100.00;62530.19;5082758;28;20531;-76
2022/12/29 08:12:44;;;;;;;39.47;26.75;;;;;;;5.33;100.00;62551.56;5078856;28;20251;-76
2022/12/29 08:15:15;;;;;;;46.33;28.48;;;;;;;5.52;100.00;62566.59;5068217;28;20219;-76
2022/12/29 08:17:50;;;;;;;45.95;27.83;;;;;;;5.44;100.00;62560.88;5076872;28;20228;-74
2022/12/29 08:20:20;;;;;;;44.75;27.52;;;;;;;5.30;100.00;62543.41;5079121;28;20199;-76
2022/12/29 08:22:58;;;;;;;46.17;28.45;;;;;;;5.48;100.00;62565.00;5085427;28;20236;-76
2022/12/29 08:25:25;;;;;;;43.13;26.67;;;;;;;5.62;100.00;62581.97;5070480;28;20205;-75
2022/12/29 08:27:59;;;;;;;47.55;28.08;;;;;;;5.67;100.00;62584.06;5063707;28;20193;-76
2022/12/29 08:30:27;;;;;;;47.53;28.08;;;;;;;5.75;100.00;62592.31;5088182;28;20264;-76
2022/12/29 08:33:05;;;;;;;46.58;28.08;;;;;;;5.80;100.00;62597.97;5073782;28;20209;-76
2022/12/29 08:35:41;;;;;;;44.83;26.75;;;;;;;5.67;100.00;62587.13;5083235;28;20192;-77
2022/12/29 08:38:12;;;;;;;39.97;26.00;;;;;;;5.95;100.00;62609.91;5080517;28;20230;-75
2022/12/29 08:40:40;;;;;;;44.78;27.15;;;;;;;5.97;100.00;62611.97;5078789;28;20260;-77
2022/12/29 08:43:21;;;;;;;47.25;26.73;;;;;;;5.97;100.00;62614.50;5082085;28;20259;-77
2022/12/29 08:45:58;;;;;;;41.63;27.60;;;;;;;6.11;100.00;62631.44;5076144;28;20247;-79
2022/12/29 08:48:27;;;;;;;44.83;28.40;;;;;;;6.06;100.00;62621.75;5086795;28;20230;-76
2022/12/29 08:50:54;;;;;;;46.47;28.40;;;;;;;6.09;100.00;62624.34;5087421;28;20338;-76
2022/12/29 08:53:31;;;;;;;41.47;27.25;;;;;;;6.16;100.00;62632.06;5091647;28;20337;-76
2022/12/29 08:56:01;;;;;;;45.55;29.65;;;;;;;5.92;100.00;62611.88;5089849;28;20556;-75
2022/12/29 08:58:33;;;;;;;47.15;26.92;;;;;;;5.80;100.00;62600.50;5089213;28;20260;-76
2022/12/29 09:01:18;;;;;;;;;;;;;;;;;;;;;
2022/12/29 09:04:01;;;;;;;43.40;27.73;;;;;;;5.94;100.00;62608.88;5068104;28;20280;-75
2022/12/29 09:06:41;;;;;;;43.85;28.88;;;;;;;6.23;100.00;62641.28;5086133;28;20221;-76
2022/12/29 09:09:16;;;;;;;49.42;28.90;;;;;;;6.42;100.00;62661.38;5087821;28;20228;-77
2022/12/29 09:11:45;;;;;;;48.50;29.95;;;;;;;6.46;100.00;62665.50;5066949;28;20253;-75
2022/12/29 09:14:13;;;;;;;42.70;27.00;;;;;;;6.41;100.00;62657.84;5073429;28;20211;-77
2022/12/29 09:19:22;;;;;;;40.28;26.90;;;;;;;6.62;100.00;62681.50;5048894;28;20299;-77
2022/12/29 09:21:49;;;;;;;45.60;26.70;;;;;;;6.85;100.00;62700.66;5081174;28;20236;-76
2022/12/29 09:24:16;;;;;;;38.85;26.98;;;;;;;6.73;100.00;62692.84;5079833;28;20197;-76
2022/12/29 09:26:44;;;;;;;47.33;27.10;;;;;;;6.79;100.00;62702.09;5070027;28;20545;-77
2022/12/29 09:29:10;;;;;;;41.15;26.60;;;;;;;6.75;100.00;62692.38;5068664;28;20384;-76
2022/12/29 09:31:41;;;;;;;42.45;27.02;;;;;;;6.75;100.00;62695.41;5077042;28;20234;-76
2022/12/29 09:34:10;;;;;;;42.17;24.98;;;;;;;6.49;100.00;62663.53;5073333;28;20205;-77
2022/12/29 09:36:39;;;;;;;41.72;26.48;;;;;;;6.61;100.00;62678.44;5078774;28;20217;-75
2022/12/29 09:39:09;;;;;;;43.97;26.90;;;;;;;6.64;100.00;62684.06;5076737;28;20209;-76
2022/12/29 09:41:47;;;;;;;45.17;27.30;;;;;;;6.80;100.00;62703.09;5079667;28;20292;-78
2022/12/29 09:44:24;;;;;;;45.65;26.92;;;;;;;7.12;100.00;62735.09;5082561;28;20229;-77
2022/12/29 09:46:57;;;;;;;40.45;27.15;;;;;;;7.16;100.00;62739.75;5083272;28;20269;-76
2022/12/29 09:49:30;;;;;;;36.15;24.77;;;;;;;7.24;100.00;62748.00;5083964;28;20208;-75
2022/12/29 09:52:09;;;;;;;36.78;23.98;;;;;;;7.13;100.00;62733.59;5082897;28;20275;-76
2022/12/29 09:54:53;;;;;;;36.40;24.63;;;;;;;7.25;100.00;62738.38;5084548;28;20223;-76
2022/12/29 09:57:42;;;;;;;33.63;24.38;;;;;;;7.45;100.00;62764.09;5078404;28;20225;-76
2022/12/29 10:03:21;;;;;;;36.97;22.88;;;;;;;7.33;100.00;62754.22;5067817;28;20668;-77
2022/12/29 10:09:01;;;;;;;39.78;25.20;;;;;;;7.39;100.00;62760.41;5070572;28;20209;-77
2022/12/29 10:12:00;;;;;;;36.70;24.38;;;;;;;7.41;100.00;62763.00;5080101;28;20521;-77
2022/12/29 10:14:59;;;;;;;35.85;23.63;;;;;;;7.63;99.81;62783.19;5074152;28;20204;-75
2022/12/29 10:17:37;;;;;;;41.08;24.02;;;;;;;7.74;99.31;62794.00;5076152;28;20229;-76
2022/12/29 10:20:28;;;;;;;34.38;23.63;;;;;;;7.85;98.95;62810.44;5071595;28;20206;-77
2022/12/29 10:23:21;;;;;;;41.03;25.85;;;;;;;8.15;98.46;62839.41;5080245;28;20262;-77
2022/12/29 10:25:57;;;;;;;38.95;24.50;;;;;;;8.28;96.49;62851.81;5084322;28;20224;-77
2022/12/29 10:28:41;;;;;;;40.17;24.20;;;;;;;8.46;94.82;62867.88;5069980;28;20268;-76
2022/12/29 10:31:19;;;;;;;39.00;23.95;;;;;;;8.52;94.43;62874.59;5085426;28;20240;-77
2022/12/29 10:33:58;;;;;;;34.65;23.35;;;;;;;8.74;93.41;62896.78;5087673;28;20250;-77
2022/12/29 10:36:34;;;;;;;34.92;23.42;;;;;;;8.83;91.65;62906.63;5073604;28;20225;-76
2022/12/29 10:39:15;;;;;;;31.38;23.50;;;;;;;9.07;91.08;62933.97;5082402;28;20188;-76
2022/12/29 10:41:50;;;;;;;42.03;24.35;;;;;;;9.21;89.82;62950.47;5085468;28;20536;-76
2022/12/29 10:44:23;;;;;;;42.03;25.10;;;;;;;9.27;89.10;62951.56;5085198;28;20489;-76
2022/12/29 10:47:00;;;;;;;40.88;24.02;;;;;;;9.33;88.58;62960.31;5091209;28;20232;-77
2022/12/29 10:49:29;;;;;;;39.95;25.17;;;;;;;9.21;87.04;62948.41;5089296;28;20200;-75
2022/12/29 10:52:06;;;;;;;37.30;24.05;;;;;;;9.13;88.24;62939.63;5069630;28;20221;-77
2022/12/29 10:54:43;;;;;;;34.20;24.15;;;;;;;9.26;88.48;62948.53;5075285;28;20558;-76
2022/12/29 10:57:26;;;;;;;34.33;23.75;;;;;;;9.11;86.85;62932.50;5080161;28;20505;-76
2022/12/29 10:59:53;;;;;;;43.13;25.48;;;;;;;8.81;88.83;62907.09;5081959;28;20189;-76
2022/12/29 11:02:54;;;;;;;42.45;24.58;;;;;;;8.82;89.51;62908.13;5087167;28;20241;-78
2022/12/29 11:05:28;;;;;;;34.95;25.10;;;;;;;8.77;89.81;62902.44;5083429;28;20205;-76
2022/12/29 11:08:00;;;;;;;37.75;24.50;;;;;;;9.01;89.58;62924.69;5083138;28;20201;-78
2022/12/29 11:10:39;;;;;;;41.67;26.45;;;;;;;9.22;88.49;62946.94;5076160;28;20200;-76
2022/12/29 11:13:17;;;;;;;42.13;25.75;;;;;;;9.26;87.30;62950.53;5072582;28;20531;-77
2022/12/29 11:15:45;;;;;;;39.63;24.95;;;;;;;9.37;87.17;62963.94;5084216;28;20418;-76
2022/12/29 11:18:22;;;;;;;39.35;25.27;;;;;;;9.48;87.08;62973.28;5080332;28;20232;-75
2022/12/29 11:20:55;;;;;;;38.70;25.65;;;;;;;9.46;86.69;62971.22;5091901;28;20236;-76
2022/12/29 11:23:30;;;;;;;41.97;23.90;;;;;;;9.43;86.58;62970.66;5089762;28;20267;-77
2022/12/29 11:26:13;;;;;;;35.30;23.55;;;;;;;9.58;86.04;62983.13;5086346;28;20221;-77
2022/12/29 11:28:47;;;;;;;39.63;25.20;;;;;;;9.43;85.33;62968.13;5092548;28;20200;-75
2022/12/29 11:31:22;;;;;;;38.60;23.60;;;;;;;9.48;85.15;62975.81;5082543;28;20221;-77
2022/12/29 11:33:49;;;;;;;43.60;24.35;;;;;;;9.47;84.44;62971.75;5084528;28;20207;-77
2022/12/29 11:36:18;;;;;;;39.67;24.48;;;;;;;9.27;86.20;62956.66;5079326;28;20246;-76
2022/12/29 11:38:49;;;;;;;36.03;23.90;;;;;;;9.35;86.05;62962.91;5076877;28;20197;-77
2022/12/29 11:41:23;;;;;;;33.70;24.15;;;;;;;9.55;84.90;62982.53;5077260;28;20231;-77
2022/12/29 11:43:53;;;;;;;39.45;23.70;;;;;;;9.35;85.47;62962.41;5079331;28;20235;-77
2022/12/29 11:46:32;;;;;;;38.08;24.55;;;;;;;9.33;85.61;62962.88;5080243;28;20232;-76
2022/12/29 11:49:05;;;;;;;44.70;24.58;;;;;;;9.41;85.81;62968.06;5076461;28;20265;-77
2022/12/29 11:51:40;;;;;;;38.80;24.85;;;;;;;9.46;85.46;62976.28;5077600;28;20213;-77
2022/12/29 11:54:10;;;;;;;42.08;24.27;;;;;;;9.32;85.00;62957.25;5081644;28;20208;-75
2022/12/29 11:56:43;;;;;;;38.03;24.13;;;;;;;9.46;85.28;62971.22;5078830;28;20251;-77
2022/12/29 11:59:43;;;;;;;37.03;24.35;;;;;;;9.42;85.93;62971.66;5084099;28;20196;-77
2022/12/29 12:02:37;;;;;;;37.08;24.50;;;;;;;9.51;85.94;62978.94;5086410;28;20351;-77
2022/12/29 12:05:14;;;;;;;42.95;23.17;;;;;;;9.47;85.58;62969.72;5071493;28;20271;-77
2022/12/29 12:07:44;;;;;;;41.50;24.45;;;;;;;9.73;85.07;63001.69;5083555;28;20220;-77
2022/12/29 12:10:24;;;;;;;40.65;23.88;;;;;;;9.58;83.84;62985.66;5084970;28;20505;-76
2022/12/29 12:13:04;;;;;;;45.88;24.15;;;;;;;9.60;84.54;62990.25;5080827;28;20208;-76
2022/12/29 12:15:38;;;;;;;41.33;23.58;;;;;;;9.53;84.59;62975.91;5084033;28;20552;-77
2022/12/29 12:18:12;;;;;;;33.92;22.85;;;;;;;9.56;84.35;62986.13;5086012;28;20219;-75
2022/12/29 12:20:50;;;;;;;36.28;22.67;;;;;;;9.69;83.88;62994.47;5085474;28;20216;-76
2022/12/29 12:23:33;;;;;;;36.42;23.88;;;;;;;9.73;83.19;63001.69;5070967;28;20229;-76
2022/12/29 12:26:19;;;;;;;32.80;22.48;;;;;;;9.51;84.11;62980.97;5068923;28;20296;-76
2022/12/29 12:29:01;;;;;;;33.00;23.00;;;;;;;9.72;84.27;62998.09;5077816;28;20257;-77
2022/12/29 12:32:01;;;;;;;35.03;24.25;;;;;;;9.89;82.39;63018.22;5079243;28;20220;-76
2022/12/29 12:34:42;;;;;;;36.58;23.35;;;;;;;10.03;82.60;63032.72;5087021;28;20205;-76
2022/12/29 12:37:30;;;;;;;38.40;24.15;;;;;;;10.12;81.95;63044.59;5085277;28;20224;-78
2022/12/29 12:40:23;;;;;;;35.60;23.00;;;;;;;10.20;80.90;63047.78;5081295;28;20209;-77
2022/12/29 12:43:06;;;;;;;35.13;24.73;;;;;;;9.55;81.97;62980.00;5076942;28;20435;-77
2022/12/29 12:45:56;;;;;;;37.70;24.17;;;;;;;9.48;84.37;62977.84;5071197;28;20192;-77
2022/12/29 12:48:44;;;;;;;41.63;24.38;;;;;;;9.45;86.26;62969.66;5082178;28;20197;-79
2022/12/29 12:51:19;;;;;;;35.65;22.65;;;;;;;9.62;86.16;62987.25;5070969;28;20221;-78
2022/12/29 12:53:59;;;;;;;38.28;24.90;;;;;;;9.74;85.82;62997.09;5089415;28;20225;-77
2022/12/29 12:56:47;;;;;;;38.92;24.42;;;;;;;9.92;84.00;63018.28;5086355;28;20318;-78
2022/12/29 12:59:27;;;;;;;38.10;24.40;;;;;;;9.88;82.82;63017.19;5080078;28;20498;-78
2022/12/29 13:02:02;;;;;;;39.75;25.58;;;;;;;9.94;82.32;63023.41;5087489;28;20220;-77
2022/12/29 13:04:59;;;;;;;41.95;25.15;;;;;;;9.96;81.87;63022.41;5070868;28;20240;-77
2022/12/29 13:07:37;;;;;;;34.28;23.80;;;;;;;9.59;84.04;62986.69;5068003;28;20233;-78